createdAt,value
2022-11-02T00:03:06.199Z,19.44
2022-11-02T00:08:09.696Z,19.47
2022-11-02T00:13:13.826Z,19.48
2022-11-02T00:18:17.878Z,19.47
2022-11-02T00:23:25.608Z,19.47
2022-11-02T00:28:29.491Z,19.50
2022-11-02T00:33:33.537Z,19.48
2022-11-02T00:38:36.930Z,19.48
2022-11-02T00:43:40.431Z,19.48
2022-11-02T00:48:44.064Z,19.47
2022-11-02T00:53:49.022Z,19.47
2022-11-02T00:58:59.516Z,19.44
2022-11-02T01:04:06.533Z,19.43
2022-11-02T01:09:11.349Z,19.43
2022-11-02T01:14:15.955Z,19.40
2022-11-02T01:19:19.994Z,19.34
2022-11-02T01:24:23.692Z,19.31
2022-11-02T01:29:27.830Z,19.25
2022-11-02T01:34:31.376Z,19.20
2022-11-02T01:39:34.815Z,19.18
2022-11-02T01:44:38.785Z,19.19
2022-11-02T01:49:44.698Z,19.18
2022-11-02T01:54:54.689Z,19.17
2022-11-02T02:00:05.345Z,19.16
2022-11-02T02:05:18.108Z,19.11
2022-11-02T02:10:21.955Z,19.08
2022-11-02T02:15:35.020Z,19.05
2022-11-02T02:21:15.281Z,19.04
2022-11-02T02:27:20.268Z,19.07
2022-11-02T02:32:49.378Z,19.06
2022-11-02T02:38:21.248Z,19.05
2022-11-02T02:43:46.468Z,19.06
2022-11-02T02:48:52.753Z,19.08
2022-11-02T02:54:01.740Z,19.08
2022-11-02T02:59:28.445Z,19.02
2022-11-02T03:04:34.769Z,18.92
2022-11-02T03:09:46.339Z,18.85
2022-11-02T03:14:56.337Z,18.81
2022-11-02T03:20:18.461Z,18.78
2022-11-02T03:25:28.866Z,18.76
2022-11-02T03:30:39.697Z,18.74
2022-11-02T03:35:43.375Z,18.74
2022-11-02T03:40:50.951Z,18.78
2022-11-02T03:46:03.018Z,18.80
2022-11-02T03:51:12.126Z,18.82
2022-11-02T03:56:25.315Z,18.83
2022-11-02T04:01:31.183Z,18.84
2022-11-02T04:06:35.978Z,18.81
2022-11-02T04:11:39.788Z,18.80
2022-11-02T04:16:47.540Z,18.75
2022-11-02T04:22:01.726Z,18.81
2022-11-02T04:27:07.250Z,18.83
2022-11-02T04:32:11.122Z,18.85
2022-11-02T04:37:15.555Z,18.90
2022-11-02T04:42:19.329Z,18.93
2022-11-02T04:47:32.918Z,18.98
2022-11-02T04:52:36.565Z,19.06
2022-11-02T04:57:45.194Z,19.12
2022-11-02T05:02:50.617Z,19.17
2022-11-02T05:07:56.890Z,19.22
2022-11-02T05:13:00.466Z,19.30
2022-11-02T05:18:08.913Z,19.39
2022-11-02T05:23:12.950Z,19.46
2022-11-02T05:28:16.270Z,19.58
2022-11-02T05:33:20.689Z,19.81
2022-11-02T05:38:26.159Z,20.29
2022-11-02T05:43:30.294Z,21.16
2022-11-02T05:48:35.226Z,22.46
2022-11-02T05:53:38.535Z,23.46
2022-11-02T05:58:42.263Z,23.14
2022-11-02T06:03:49.060Z,22.58
2022-11-02T06:09:02.842Z,22.24
2022-11-02T06:14:09.496Z,22.04
2022-11-02T06:19:16.099Z,22.12
2022-11-02T06:24:19.462Z,22.03
2022-11-02T06:29:25.483Z,22.07
2022-11-02T06:34:29.489Z,23.10
2022-11-02T06:39:32.926Z,24.58
2022-11-02T06:44:36.661Z,24.87
2022-11-02T06:49:41.877Z,24.68
2022-11-02T06:54:45.295Z,23.69
2022-11-02T06:59:53.810Z,23.07
2022-11-02T07:04:57.684Z,22.94
2022-11-02T07:10:01.089Z,22.82
2022-11-02T07:15:04.678Z,22.84
2022-11-02T07:20:08.473Z,22.84
2022-11-02T07:25:12.136Z,22.66
2022-11-02T07:30:15.358Z,22.59
2022-11-02T07:35:18.740Z,22.59
2022-11-02T07:40:23.009Z,22.43
2022-11-02T07:45:26.980Z,22.31
2022-11-02T07:50:30.431Z,22.14
2022-11-02T07:55:34.468Z,22.01
2022-11-02T08:00:40.204Z,21.85
2022-11-02T08:05:43.841Z,21.79
2022-11-02T08:10:49.816Z,21.75
2022-11-02T08:15:54.533Z,21.63
2022-11-02T08:21:01.451Z,21.52
2022-11-02T08:26:05.050Z,21.60
2022-11-02T08:31:15.216Z,21.66
2022-11-02T08:36:19.045Z,21.74
2022-11-02T08:41:24.756Z,22.06
2022-11-02T08:46:30.725Z,22.24
2022-11-02T08:51:33.903Z,22.22
2022-11-02T08:56:37.191Z,22.22
2022-11-02T09:01:40.607Z,22.24
2022-11-02T09:06:44.301Z,22.15
2022-11-02T09:11:51.367Z,22.16
2022-11-02T09:16:57.268Z,22.26
2022-11-02T09:22:04.843Z,22.33
2022-11-02T09:27:13.546Z,22.37
2022-11-02T09:32:20.877Z,22.41
2022-11-02T09:37:28.461Z,22.51
2022-11-02T09:42:40.285Z,22.52
2022-11-02T09:48:15.347Z,22.42
2022-11-02T09:53:22.638Z,22.33
2022-11-02T09:58:34.359Z,22.42
2022-11-02T10:04:11.807Z,22.50
2022-11-02T10:09:28.320Z,22.57
2022-11-02T10:14:38.382Z,22.58
2022-11-02T10:19:48.614Z,22.57
2022-11-02T10:24:54.875Z,22.57
2022-11-02T10:30:13.635Z,22.73
2022-11-02T10:36:04.341Z,22.74
2022-11-02T10:41:36.031Z,22.74
2022-11-02T10:46:39.129Z,22.62
2022-11-02T10:51:44.593Z,22.65
2022-11-02T10:56:51.637Z,22.57
2022-11-02T11:01:57.929Z,22.39
2022-11-02T11:07:07.775Z,22.39
2022-11-02T11:12:16.257Z,22.49
2022-11-02T11:23:27.483Z,22.70
2022-11-02T11:28:53.709Z,22.70
2022-11-02T11:33:59.293Z,22.68
2022-11-02T11:39:07.293Z,22.72
2022-11-02T11:44:15.742Z,22.81
2022-11-02T11:54:56.568Z,22.90
2022-11-02T12:00:05.199Z,22.80
2022-11-02T12:05:17.586Z,22.85
2022-11-02T12:11:18.918Z,22.86
2022-11-02T12:16:54.826Z,22.87
2022-11-02T12:22:24.210Z,22.97
2022-11-02T12:27:48.490Z,23.16
2022-11-02T12:33:05.466Z,23.09
2022-11-02T12:38:46.994Z,22.94
2022-11-02T12:44:13.968Z,22.92
2022-11-02T12:49:37.164Z,22.97
2022-11-02T12:54:52.459Z,23.01
2022-11-02T13:00:01.907Z,22.91
2022-11-02T13:05:15.480Z,22.79
2022-11-02T13:10:21.445Z,22.68
2022-11-02T13:15:27.949Z,22.61
2022-11-02T13:20:39.678Z,22.53
2022-11-02T13:25:49.465Z,22.42
2022-11-02T13:30:55.171Z,22.27
2022-11-02T13:36:01.147Z,22.22
2022-11-02T13:41:13.755Z,22.15
2022-11-02T13:46:52.153Z,22.05
2022-11-02T13:52:13.896Z,21.93
2022-11-02T13:57:42.813Z,21.88
2022-11-02T14:02:46.643Z,21.78
2022-11-02T14:07:50.359Z,21.69
2022-11-02T14:12:54.475Z,21.57
2022-11-02T14:18:08.094Z,21.46
2022-11-02T14:23:11.656Z,21.35
2022-11-02T14:28:24.230Z,21.25
2022-11-02T14:33:43.886Z,21.16
2022-11-02T14:39:10.092Z,21.14
2022-11-02T14:44:50.946Z,21.09
2022-11-02T14:50:04.430Z,20.97
2022-11-02T14:55:25.547Z,20.91
2022-11-02T15:00:49.944Z,20.82
2022-11-02T15:06:15.330Z,20.73
2022-11-02T15:12:09.638Z,20.67
2022-11-02T15:17:13.010Z,20.61
2022-11-02T15:22:43.524Z,20.56
2022-11-02T15:27:49.575Z,20.48
2022-11-02T15:33:06.499Z,20.46
2022-11-02T15:38:19.198Z,20.44
2022-11-02T15:43:27.038Z,20.44
2022-11-02T15:48:48.409Z,20.45
2022-11-02T15:54:13.863Z,20.48
2022-11-02T15:59:20.320Z,20.50
2022-11-02T16:04:24.665Z,20.50
2022-11-02T16:09:35.320Z,20.45
2022-11-02T16:14:40.480Z,20.40
2022-11-02T16:19:43.543Z,20.34
2022-11-02T16:24:47.223Z,20.31
2022-11-02T16:29:51.091Z,20.25
2022-11-02T16:34:55.373Z,20.19
2022-11-02T16:40:01.093Z,20.15
2022-11-02T16:45:31.862Z,20.13
2022-11-02T16:50:35.456Z,20.08
2022-11-02T16:55:47.925Z,20.07
2022-11-02T17:00:59.451Z,20.02
2022-11-02T17:06:05.681Z,20.00
2022-11-02T17:11:15.286Z,19.95
2022-11-02T17:16:19.477Z,19.94
2022-11-02T17:21:27.031Z,19.91
2022-11-02T17:26:33.588Z,19.90
2022-11-02T17:31:38.840Z,19.91
2022-11-02T17:36:43.890Z,19.92
2022-11-02T17:41:53.061Z,19.98
2022-11-02T17:46:56.579Z,20.04
2022-11-02T17:52:00.041Z,20.11
2022-11-02T17:57:11.665Z,20.17
2022-11-02T18:02:16.395Z,20.22
2022-11-02T18:07:20.839Z,20.27
2022-11-02T18:12:24.315Z,20.31
2022-11-02T18:17:34.895Z,20.36
2022-11-02T18:22:39.003Z,20.39
2022-11-02T18:27:42.679Z,20.47
2022-11-02T18:32:46.846Z,20.53
2022-11-02T18:37:51.215Z,20.43
2022-11-02T18:42:55.120Z,20.28
2022-11-02T18:47:58.611Z,20.00
2022-11-02T18:53:01.939Z,19.92
2022-11-02T18:58:05.634Z,19.96
2022-11-02T19:03:11.522Z,20.00
2022-11-02T19:08:17.306Z,19.97
2022-11-02T19:13:27.847Z,19.96
2022-11-02T19:18:31.473Z,19.94
2022-11-02T19:23:34.802Z,19.95
2022-11-02T19:28:38.313Z,19.93
2022-11-02T19:33:41.531Z,19.91
2022-11-02T19:38:45.133Z,19.89
2022-11-02T19:43:49.004Z,19.86
2022-11-02T19:48:54.837Z,19.85
2022-11-02T19:54:00.126Z,19.85
2022-11-02T19:59:04.752Z,19.83
2022-11-02T20:04:09.102Z,19.82
2022-11-02T20:09:17.908Z,19.82
2022-11-02T20:14:21.087Z,19.80
2022-11-02T20:19:25.013Z,19.78
2022-11-02T20:24:28.743Z,19.78
2022-11-02T20:29:32.405Z,19.77
2022-11-02T20:34:36.517Z,19.74
2022-11-02T20:39:39.842Z,19.72
2022-11-02T20:44:43.124Z,19.74
2022-11-02T20:49:50.943Z,19.81
2022-11-02T20:54:55.289Z,19.81
2022-11-02T20:59:58.706Z,19.81
2022-11-02T21:05:05.105Z,19.83
2022-11-02T21:10:12.385Z,19.83
2022-11-02T21:15:16.233Z,19.80
2022-11-02T21:20:35.340Z,19.76
2022-11-02T21:25:39.225Z,19.74
2022-11-02T21:30:43.011Z,19.71
2022-11-02T21:35:47.857Z,19.70
2022-11-02T21:40:52.235Z,19.74
2022-11-02T21:46:00.989Z,19.84
2022-11-02T21:51:13.643Z,19.94
2022-11-02T21:56:23.151Z,20.00
2022-11-02T22:01:28.761Z,20.08
2022-11-02T22:06:32.419Z,20.14
2022-11-02T22:11:36.074Z,20.08
2022-11-02T22:16:42.265Z,19.97
2022-11-02T22:21:46.486Z,19.87
2022-11-02T22:26:50.883Z,19.79
2022-11-02T22:31:56.787Z,19.63
2022-11-02T22:37:00.233Z,19.53
2022-11-02T22:42:07.165Z,19.44
2022-11-02T22:47:10.691Z,19.45
2022-11-02T22:52:13.836Z,19.45
2022-11-02T22:57:17.492Z,19.45
2022-11-02T23:02:21.157Z,19.46
2022-11-02T23:07:25.258Z,19.09
2022-11-02T23:12:28.422Z,18.58
2022-11-02T23:17:31.768Z,18.22
2022-11-02T23:22:35.530Z,18.03
2022-11-02T23:27:43.905Z,17.95
2022-11-02T23:32:49.963Z,17.87
2022-11-02T23:38:05.476Z,17.89
2022-11-02T23:43:11.493Z,17.89
2022-11-02T23:53:24.331Z,17.92
2022-11-02T23:58:27.839Z,17.95
